createdAt,value
2023-05-09T06:14:43.403Z,16.23
2023-05-09T06:17:11.368Z,15.38
2023-05-09T06:19:39.214Z,15.60
2023-05-09T06:22:06.976Z,15.95
2023-05-09T06:24:36.206Z,15.93
2023-05-09T06:27:05.019Z,15.60
2023-05-09T06:29:32.764Z,15.85
2023-05-09T06:32:01.977Z,15.02
2023-05-09T06:34:30.078Z,15.25
2023-05-09T06:36:58.205Z,15.60
2023-05-09T06:39:26.092Z,15.55
2023-05-09T06:41:53.745Z,14.23
2023-05-09T06:44:21.748Z,15.48
2023-05-09T06:46:49.718Z,15.77
2023-05-09T06:49:20.121Z,14.70
2023-05-09T06:51:47.833Z,14.35
2023-05-09T06:54:17.125Z,14.57
2023-05-09T06:56:45.203Z,14.27
2023-05-09T06:59:13.830Z,13.57
2023-05-09T07:01:41.842Z,14.30
2023-05-09T07:04:12.352Z,12.98
2023-05-09T07:06:41.528Z,11.52
2023-05-09T07:09:09.824Z,11.65
2023-05-09T07:11:37.854Z,12.70
2023-05-09T07:14:05.764Z,11.43
2023-05-09T07:16:36.669Z,11.27
2023-05-09T07:19:05.439Z,10.80
2023-05-09T07:21:34.394Z,9.98
2023-05-09T07:24:04.641Z,9.52
2023-05-09T07:26:32.436Z,10.25
2023-05-09T07:29:00.227Z,10.18
2023-05-09T07:31:28.309Z,9.93
2023-05-09T07:33:56.050Z,9.48
2023-05-09T07:36:25.081Z,9.15
2023-05-09T07:38:52.869Z,10.85
2023-05-09T07:41:22.845Z,10.07
2023-05-09T07:43:50.765Z,9.68
2023-05-09T07:46:18.655Z,9.73
2023-05-09T07:48:46.496Z,9.60
2023-05-09T07:51:14.365Z,10.15
2023-05-09T07:53:42.087Z,9.95
2023-05-09T07:56:09.785Z,10.05
2023-05-09T07:58:39.455Z,9.75
2023-05-09T08:01:07.548Z,9.18
2023-05-09T08:03:35.468Z,8.65
2023-05-09T08:06:04.152Z,8.45
2023-05-09T08:08:31.927Z,8.60
2023-05-09T08:10:59.707Z,8.38
2023-05-09T08:13:27.466Z,8.77
2023-05-09T08:15:56.965Z,8.23
2023-05-09T08:18:25.110Z,7.60
2023-05-09T08:20:52.963Z,8.45
2023-05-09T08:23:20.829Z,7.88
2023-05-09T08:25:48.634Z,8.18
2023-05-09T08:28:16.826Z,8.23
2023-05-09T08:30:44.933Z,9.10
2023-05-09T08:33:14.630Z,7.43
2023-05-09T08:35:44.480Z,7.68
2023-05-09T08:38:12.485Z,7.88
2023-05-09T08:40:42.201Z,7.70
2023-05-09T08:43:12.493Z,7.60
2023-05-09T08:45:46.986Z,6.85
2023-05-09T08:48:18.615Z,6.65
2023-05-09T08:50:46.429Z,7.63
2023-05-09T08:53:15.109Z,7.05
2023-05-09T08:55:43.054Z,7.28
2023-05-09T08:58:11.305Z,7.40
2023-05-09T09:00:39.818Z,6.78
2023-05-09T09:03:07.951Z,7.15
2023-05-09T09:05:41.776Z,6.40
2023-05-09T09:08:11.076Z,7.25
2023-05-09T09:10:41.882Z,7.45
2023-05-09T09:13:11.263Z,7.63
2023-05-09T09:15:41.792Z,8.35
2023-05-09T09:18:12.660Z,7.82
2023-05-09T09:21:02.998Z,6.95
2023-05-09T09:23:32.923Z,6.65
2023-05-09T09:26:02.520Z,6.03
2023-05-09T09:28:30.411Z,5.47
2023-05-09T09:30:58.265Z,7.07
2023-05-09T09:33:29.951Z,7.40
2023-05-09T09:36:01.115Z,7.45
2023-05-09T09:38:28.815Z,8.25
2023-05-09T09:40:59.223Z,7.05
2023-05-09T09:43:30.907Z,6.70
2023-05-09T09:46:02.196Z,7.35
2023-05-09T09:48:34.665Z,7.25
2023-05-09T09:51:10.552Z,6.82
2023-05-09T09:53:42.007Z,7.18
2023-05-09T09:56:10.123Z,7.27
2023-05-09T09:58:38.130Z,7.20
2023-05-09T10:01:07.525Z,6.57
2023-05-09T10:03:39.799Z,6.93
2023-05-09T10:08:39.034Z,7.45
2023-05-09T10:11:07.310Z,7.45
2023-05-09T10:13:37.586Z,7.43
2023-05-09T10:16:06.800Z,8.63
2023-05-09T10:18:35.798Z,8.35
2023-05-09T10:21:05.609Z,7.13
2023-05-09T10:23:54.408Z,7.35
2023-05-09T10:26:27.605Z,6.82
2023-05-09T10:28:58.156Z,6.95
2023-05-09T10:31:27.578Z,7.45
2023-05-09T10:33:56.547Z,8.45
2023-05-09T10:36:25.227Z,8.70
2023-05-09T10:38:56.340Z,8.57
2023-05-09T10:41:25.901Z,7.25
2023-05-09T10:43:54.069Z,8.82
2023-05-09T10:46:22.083Z,9.95
2023-05-09T10:48:50.712Z,8.68
2023-05-09T10:51:19.035Z,7.30
2023-05-09T10:53:49.298Z,7.45
2023-05-09T10:56:27.054Z,8.73
2023-05-09T10:58:55.732Z,9.25
2023-05-09T11:01:33.356Z,9.13
2023-05-09T11:04:02.271Z,8.90
2023-05-09T11:06:42.730Z,9.25
2023-05-09T11:09:33.105Z,8.73
2023-05-09T11:12:21.086Z,9.05
2023-05-09T11:14:50.038Z,8.20
2023-05-09T11:17:30.100Z,7.78
2023-05-09T11:20:00.245Z,7.68
2023-05-09T11:22:30.931Z,7.72
2023-05-09T11:25:06.000Z,7.97
2023-05-09T11:27:42.397Z,8.52
2023-05-09T11:30:12.097Z,9.93
2023-05-09T11:32:46.455Z,8.55
2023-05-09T11:35:16.264Z,7.88
2023-05-09T11:37:49.604Z,9.27
2023-05-09T11:40:18.855Z,9.60
2023-05-09T11:42:50.110Z,10.35
2023-05-09T11:45:20.184Z,11.18
2023-05-09T11:47:49.188Z,10.85
2023-05-09T11:50:19.250Z,10.60
2023-05-09T11:52:48.360Z,9.98
2023-05-09T11:55:18.752Z,9.77
2023-05-09T11:57:50.571Z,9.35
2023-05-09T12:00:19.535Z,9.15
2023-05-09T12:02:48.398Z,9.77
2023-05-09T12:05:18.652Z,9.65
2023-05-09T12:07:47.048Z,8.85
2023-05-09T12:10:17.061Z,9.05
2023-05-09T12:12:47.053Z,7.43
2023-05-09T12:15:26.634Z,7.68
2023-05-09T12:18:04.911Z,5.85
2023-05-09T12:20:43.460Z,5.15
2023-05-09T12:23:12.609Z,5.90
2023-05-09T12:25:41.871Z,5.18
2023-05-09T12:28:09.844Z,5.30
2023-05-09T12:30:39.118Z,6.07
2023-05-09T12:33:07.279Z,7.05
2023-05-09T12:35:36.001Z,6.85
2023-05-09T12:38:04.016Z,7.10
2023-05-09T12:40:32.053Z,5.30
2023-05-09T12:43:02.609Z,6.18
2023-05-09T12:45:33.718Z,6.50
2023-05-09T12:48:05.028Z,5.53
2023-05-09T12:50:34.969Z,5.80
2023-05-09T12:53:04.453Z,5.50
2023-05-09T12:55:32.873Z,5.38
2023-05-09T12:58:02.691Z,5.13
2023-05-09T13:00:43.640Z,4.97
2023-05-09T13:03:25.609Z,4.18
2023-05-09T13:05:58.522Z,4.28
2023-05-09T13:08:28.137Z,4.70
2023-05-09T13:11:07.752Z,4.35
2023-05-09T13:13:43.012Z,4.53
2023-05-09T13:16:12.183Z,4.13
2023-05-09T13:18:44.168Z,4.20
2023-05-09T13:21:11.922Z,3.88
2023-05-09T13:23:39.641Z,4.00
2023-05-09T13:26:08.863Z,4.13
2023-05-09T13:28:36.663Z,4.03
2023-05-09T13:31:04.636Z,4.13
2023-05-09T13:33:32.726Z,3.80
2023-05-09T13:36:01.868Z,4.20
2023-05-09T13:38:32.241Z,4.05
2023-05-09T13:41:00.477Z,4.03
2023-05-09T13:43:28.243Z,4.00
2023-05-09T13:45:56.122Z,4.40
2023-05-09T13:48:23.851Z,4.45
2023-05-09T13:50:52.274Z,3.80
2023-05-09T13:53:21.369Z,3.80
2023-05-09T13:55:49.189Z,3.92
2023-05-09T13:58:17.106Z,3.83
2023-05-09T14:01:07.901Z,4.22
2023-05-09T14:03:35.852Z,4.10
2023-05-09T14:06:04.386Z,4.18
2023-05-09T14:08:33.532Z,4.25
2023-05-09T14:11:01.293Z,4.20
2023-05-09T14:13:29.116Z,4.10
2023-05-09T14:15:56.879Z,4.03
2023-05-09T14:18:24.587Z,4.50
2023-05-09T14:20:52.366Z,4.05
2023-05-09T14:23:20.074Z,4.20
2023-05-09T14:25:49.489Z,4.07
2023-05-09T14:28:17.543Z,4.30
2023-05-09T14:30:45.486Z,4.20
2023-05-09T14:33:13.568Z,4.03
2023-05-09T14:35:41.880Z,4.10
2023-05-09T14:38:09.983Z,3.63
2023-05-09T14:40:37.861Z,4.00
2023-05-09T14:43:07.470Z,3.95
2023-05-09T14:45:35.609Z,4.25
2023-05-09T14:48:05.176Z,4.18
2023-05-09T14:50:33.426Z,4.30
2023-05-09T14:53:02.120Z,4.50
2023-05-09T14:55:31.264Z,4.70
2023-05-09T14:57:59.234Z,4.85
2023-05-09T15:00:28.888Z,4.07
2023-05-09T15:02:57.875Z,4.22
2023-05-09T15:05:28.615Z,4.00
2023-05-09T15:07:57.729Z,3.75
2023-05-09T15:10:26.517Z,4.40
2023-05-09T15:12:55.500Z,4.28
2023-05-09T15:15:24.735Z,4.63
2023-05-09T15:17:55.205Z,4.68
2023-05-09T15:20:23.064Z,4.60
2023-05-09T15:22:52.848Z,4.47
2023-05-09T15:25:21.806Z,4.07
2023-05-09T15:27:50.524Z,4.55
2023-05-09T15:30:18.488Z,4.13
2023-05-09T15:32:46.960Z,4.43
2023-05-09T15:35:18.359Z,5.00
2023-05-09T15:37:46.289Z,5.47
2023-05-09T15:40:15.090Z,6.15
2023-05-09T15:42:43.343Z,5.38
2023-05-09T15:45:11.578Z,4.65
2023-05-09T15:47:39.335Z,4.57
2023-05-09T15:50:08.573Z,5.13
2023-05-09T15:52:37.874Z,5.07
2023-05-09T15:55:06.780Z,4.70
2023-05-09T15:57:34.693Z,5.30
2023-05-09T16:00:02.569Z,5.38
2023-05-09T16:02:33.691Z,5.00
2023-05-09T16:05:01.638Z,5.47
2023-05-09T16:07:29.970Z,5.72
2023-05-09T16:09:59.216Z,6.45
2023-05-09T16:12:28.543Z,6.22
2023-05-09T16:14:56.765Z,5.72
2023-05-09T16:17:24.628Z,5.60
2023-05-09T16:19:52.427Z,5.93
2023-05-09T16:22:21.917Z,4.40
2023-05-09T16:24:50.116Z,4.28
2023-05-09T16:27:19.421Z,4.32
2023-05-09T16:29:47.209Z,3.50
2023-05-09T16:32:14.988Z,3.80
2023-05-09T16:34:42.733Z,3.80
2023-05-09T16:37:12.610Z,3.90
2023-05-09T16:39:40.281Z,3.90
2023-05-09T16:42:08.266Z,4.18
2023-05-09T16:44:37.776Z,3.10
2023-05-09T16:47:05.653Z,2.50
2023-05-09T16:49:33.342Z,3.17
2023-05-09T16:52:01.347Z,2.92
2023-05-09T16:54:29.145Z,3.13
2023-05-09T16:56:56.860Z,2.70
2023-05-09T16:59:24.599Z,2.97
2023-05-09T17:01:54.176Z,3.28
2023-05-09T17:04:21.972Z,2.65
2023-05-09T17:06:51.775Z,2.92
2023-05-09T17:09:22.091Z,2.13
2023-05-09T17:11:50.297Z,2.13
2023-05-09T17:14:18.178Z,2.35
2023-05-09T17:16:45.976Z,2.22
2023-05-09T17:19:16.566Z,2.13
2023-05-09T17:21:44.371Z,2.38
2023-05-09T17:24:12.253Z,2.83
2023-05-09T17:26:39.985Z,2.10
2023-05-09T17:29:07.667Z,2.50
2023-05-09T17:31:35.539Z,2.55
2023-05-09T17:34:04.155Z,2.50
2023-05-09T17:36:33.526Z,2.90
2023-05-09T17:39:01.703Z,2.78
2023-05-09T17:41:29.493Z,2.30
2023-05-09T17:43:57.551Z,2.60
2023-05-09T17:46:26.428Z,2.88
2023-05-09T17:48:54.227Z,3.00
2023-05-09T17:51:21.967Z,2.88
2023-05-09T17:53:52.758Z,2.67
2023-05-09T17:56:21.226Z,3.25
2023-05-09T17:58:52.855Z,3.70
2023-05-09T18:01:20.805Z,3.65
2023-05-09T18:03:48.682Z,3.88
2023-05-09T18:06:16.364Z,3.58
2023-05-09T18:08:44.057Z,3.90
2023-05-09T18:11:13.669Z,3.25
2023-05-09T18:13:41.431Z,2.63
2023-05-09T18:16:09.193Z,2.90
2023-05-09T18:18:37.009Z,3.30
2023-05-09T18:21:05.678Z,2.97
2023-05-09T18:23:33.427Z,2.75
2023-05-09T18:26:01.722Z,3.10
2023-05-09T18:28:32.034Z,2.97
2023-05-09T18:31:01.300Z,2.90
2023-05-09T18:33:29.883Z,3.80
2023-05-09T18:35:57.992Z,3.03
2023-05-09T18:38:25.597Z,2.92
2023-05-09T18:40:53.307Z,3.08
2023-05-09T18:43:21.616Z,3.47
2023-05-09T18:45:51.980Z,3.00
2023-05-09T18:48:20.006Z,3.30
2023-05-09T18:50:48.845Z,3.55
2023-05-09T18:53:16.651Z,3.20
2023-05-09T18:55:44.424Z,3.28
2023-05-09T18:58:12.489Z,3.95
2023-05-09T19:00:40.318Z,3.50
2023-05-09T19:03:09.476Z,3.63
2023-05-09T19:05:37.299Z,3.38
2023-05-09T19:08:05.404Z,3.45
2023-05-09T19:10:33.886Z,3.63
2023-05-09T19:15:30.300Z,3.22
2023-05-09T19:17:58.082Z,3.97
2023-05-09T19:20:29.497Z,3.55
2023-05-09T19:22:57.263Z,3.50
2023-05-09T19:25:26.770Z,3.78
2023-05-09T19:27:54.807Z,3.15
2023-05-09T19:30:22.856Z,4.45
2023-05-09T19:32:50.651Z,4.28
2023-05-09T19:35:18.544Z,3.83
2023-05-09T19:37:47.883Z,4.43
2023-05-09T19:40:16.160Z,4.68
2023-05-09T19:42:44.147Z,4.40
2023-05-09T19:45:13.325Z,4.50
2023-05-09T19:47:41.591Z,4.28
2023-05-09T19:50:10.291Z,4.00
2023-05-09T19:52:38.198Z,3.50
2023-05-09T19:55:11.034Z,3.50
2023-05-09T19:57:38.789Z,3.40
2023-05-09T20:00:08.044Z,3.25
2023-05-09T20:02:36.136Z,2.80
2023-05-09T20:05:03.974Z,2.95
2023-05-09T20:07:31.705Z,2.17
2023-05-09T20:10:00.708Z,2.40
2023-05-09T20:12:30.540Z,2.20
2023-05-09T20:14:58.507Z,2.38
2023-05-09T20:17:26.209Z,2.13
2023-05-09T20:19:54.021Z,2.00
2023-05-09T20:22:21.832Z,2.08
2023-05-09T20:24:49.641Z,2.00
2023-05-09T20:27:17.427Z,1.95
2023-05-09T20:29:46.823Z,1.98
2023-05-09T20:32:14.532Z,2.80
2023-05-09T20:34:42.188Z,1.75
2023-05-09T20:37:10.934Z,1.80
2023-05-09T20:39:39.798Z,2.00
2023-05-09T20:42:07.514Z,2.30
2023-05-09T20:44:35.320Z,2.25
2023-05-09T20:47:04.586Z,2.17
2023-05-09T20:49:32.563Z,2.08
2023-05-09T20:52:00.422Z,2.30
2023-05-09T20:54:29.043Z,2.00
2023-05-09T20:56:56.768Z,1.90
2023-05-09T20:59:24.512Z,2.10
2023-05-09T21:01:52.664Z,2.40
2023-05-09T21:04:22.140Z,2.28
2023-05-09T21:06:50.162Z,2.30
2023-05-09T21:09:18.512Z,2.17
2023-05-09T21:11:46.228Z,2.63
2023-05-09T21:14:13.983Z,2.25
2023-05-09T21:16:43.968Z,2.78
2023-05-09T21:19:11.816Z,2.55
2023-05-09T21:21:40.938Z,2.38
2023-05-09T21:24:09.795Z,2.53
2023-05-09T21:26:37.707Z,2.28
2023-05-09T21:29:06.580Z,2.78
2023-05-09T21:31:34.879Z,2.63
2023-05-09T21:34:02.833Z,2.88
2023-05-09T21:36:30.605Z,2.72
2023-05-09T21:38:59.599Z,3.10
2023-05-09T21:41:28.154Z,1.65
2023-05-09T21:43:56.072Z,1.13
2023-05-09T21:46:23.784Z,0.68
2023-05-09T21:48:51.624Z,0.82
2023-05-09T21:51:19.578Z,0.60
2023-05-09T21:53:47.563Z,0.50
2023-05-09T21:56:17.239Z,0.80
2023-05-09T21:58:44.934Z,0.70
2023-05-09T22:01:12.763Z,0.60
2023-05-09T22:03:40.873Z,0.40
2023-05-09T22:06:08.979Z,0.55
2023-05-09T22:08:36.702Z,0.40
2023-05-09T22:11:04.672Z,0.60
2023-05-09T22:13:33.816Z,0.50
2023-05-09T22:16:01.509Z,0.60
2023-05-09T22:18:29.245Z,0.45
2023-05-09T22:20:57.187Z,0.32
2023-05-09T22:23:24.949Z,0.40
2023-05-09T22:25:52.618Z,1.15
2023-05-09T22:28:20.350Z,0.60
2023-05-09T22:30:49.555Z,0.50
2023-05-09T22:33:17.511Z,0.50
2023-05-09T22:35:45.243Z,0.77
2023-05-09T22:38:13.237Z,0.40
2023-05-09T22:40:41.100Z,0.60
2023-05-09T22:43:11.545Z,0.50
2023-05-09T22:45:39.490Z,0.60
2023-05-09T22:48:08.953Z,0.50
2023-05-09T22:50:36.750Z,0.52
2023-05-09T22:53:04.525Z,0.60
2023-05-09T22:55:32.360Z,0.80
2023-05-09T22:58:00.072Z,0.70
2023-05-09T23:00:29.123Z,0.70
2023-05-09T23:02:56.999Z,0.70
2023-05-09T23:05:26.179Z,0.70
2023-05-09T23:07:55.065Z,0.90
2023-05-09T23:10:22.788Z,1.10
2023-05-09T23:12:50.642Z,1.10
2023-05-09T23:15:18.619Z,1.05
2023-05-09T23:17:46.429Z,1.40
2023-05-09T23:20:14.304Z,1.00
2023-05-09T23:22:43.580Z,0.80
2023-05-09T23:25:11.310Z,0.77
2023-05-09T23:27:40.635Z,1.05
2023-05-09T23:30:10.034Z,0.80
2023-05-09T23:32:37.826Z,1.08
2023-05-09T23:35:06.034Z,1.10
2023-05-09T23:37:34.061Z,0.90
2023-05-09T23:40:04.754Z,1.30
2023-05-09T23:42:32.686Z,1.70
2023-05-09T23:45:00.724Z,0.70
2023-05-09T23:47:28.680Z,0.90
2023-05-09T23:49:56.766Z,0.73
2023-05-09T23:52:24.462Z,0.70
2023-05-09T23:54:53.221Z,1.10
2023-05-09T23:57:22.376Z,1.00
2023-05-09T23:59:50.294Z,1.05
